sensor_id;sensor_type;location;lat;lon;timestamp;P1;durP1;ratioP1;P2;durP2;ratioP2
73699;SDS011;62005;50.082;8.988;2023-09-07T00:00:34;4.83;;;2.13;;
73699;SDS011;62005;50.082;8.988;2023-09-07T00:02:59;4.73;;;2.07;;
73699;SDS011;62005;50.082;8.988;2023-09-07T00:05:25;4.40;;;2.47;;
73699;SDS011;62005;50.082;8.988;2023-09-07T00:07:50;4.93;;;2.27;;
73699;SDS011;62005;50.082;8.988;2023-09-07T00:10:18;5.20;;;2.38;;
73699;SDS011;62005;50.082;8.988;2023-09-07T00:12:43;4.43;;;2.33;;
73699;SDS011;62005;50.082;8.988;2023-09-07T00:15:09;6.85;;;2.70;;
73699;SDS011;62005;50.082;8.988;2023-09-07T00:17:35;4.38;;;2.60;;
73699;SDS011;62005;50.082;8.988;2023-09-07T00:20:01;5.83;;;2.63;;
73699;SDS011;62005;50.082;8.988;2023-09-07T00:22:29;4.25;;;2.00;;
73699;SDS011;62005;50.082;8.988;2023-09-07T00:24:54;5.40;;;2.37;;
73699;SDS011;62005;50.082;8.988;2023-09-07T00:27:19;4.10;;;2.20;;
73699;SDS011;62005;50.082;8.988;2023-09-07T00:29:44;5.67;;;2.77;;
73699;SDS011;62005;50.082;8.988;2023-09-07T00:32:09;5.00;;;2.63;;
73699;SDS011;62005;50.082;8.988;2023-09-07T00:34:35;6.47;;;2.50;;
73699;SDS011;62005;50.082;8.988;2023-09-07T00:37:00;4.60;;;2.57;;
73699;SDS011;62005;50.082;8.988;2023-09-07T00:39:25;4.72;;;2.30;;
73699;SDS011;62005;50.082;8.988;2023-09-07T00:41:51;4.03;;;2.00;;
73699;SDS011;62005;50.082;8.988;2023-09-07T00:44:16;3.90;;;2.30;;
73699;SDS011;62005;50.082;8.988;2023-09-07T00:46:41;5.43;;;2.37;;
73699;SDS011;62005;50.082;8.988;2023-09-07T00:49:07;3.33;;;1.80;;
73699;SDS011;62005;50.082;8.988;2023-09-07T00:51:32;5.60;;;2.97;;
73699;SDS011;62005;50.082;8.988;2023-09-07T00:53:58;4.75;;;2.00;;
73699;SDS011;62005;50.082;8.988;2023-09-07T00:56:24;7.82;;;2.45;;
73699;SDS011;62005;50.082;8.988;2023-09-07T00:58:50;5.38;;;2.38;;
73699;SDS011;62005;50.082;8.988;2023-09-07T01:01:16;4.80;;;2.30;;
73699;SDS011;62005;50.082;8.988;2023-09-07T01:03:41;4.20;;;2.20;;
73699;SDS011;62005;50.082;8.988;2023-09-07T01:06:13;6.00;;;2.80;;
73699;SDS011;62005;50.082;8.988;2023-09-07T01:08:41;4.47;;;2.28;;
73699;SDS011;62005;50.082;8.988;2023-09-07T01:11:14;3.58;;;1.95;;
73699;SDS011;62005;50.082;8.988;2023-09-07T01:13:40;4.22;;;2.28;;
73699;SDS011;62005;50.082;8.988;2023-09-07T01:16:05;4.00;;;2.10;;
73699;SDS011;62005;50.082;8.988;2023-09-07T01:18:30;4.30;;;2.00;;
73699;SDS011;62005;50.082;8.988;2023-09-07T01:20:55;5.00;;;2.17;;
73699;SDS011;62005;50.082;8.988;2023-09-07T01:23:23;4.28;;;1.85;;
73699;SDS011;62005;50.082;8.988;2023-09-07T01:25:48;4.60;;;2.42;;
73699;SDS011;62005;50.082;8.988;2023-09-07T01:28:14;5.57;;;2.10;;
73699;SDS011;62005;50.082;8.988;2023-09-07T01:30:40;5.80;;;1.83;;
73699;SDS011;62005;50.082;8.988;2023-09-07T01:33:05;5.13;;;1.97;;
73699;SDS011;62005;50.082;8.988;2023-09-07T01:35:31;4.17;;;2.30;;
73699;SDS011;62005;50.082;8.988;2023-09-07T01:37:56;4.00;;;2.15;;
73699;SDS011;62005;50.082;8.988;2023-09-07T01:40:21;6.43;;;2.03;;
73699;SDS011;62005;50.082;8.988;2023-09-07T01:42:47;3.50;;;1.80;;
73699;SDS011;62005;50.082;8.988;2023-09-07T01:45:12;5.63;;;2.17;;
73699;SDS011;62005;50.082;8.988;2023-09-07T01:47:37;5.30;;;2.83;;
73699;SDS011;62005;50.082;8.988;2023-09-07T01:50:02;5.73;;;2.03;;
73699;SDS011;62005;50.082;8.988;2023-09-07T01:52:28;3.70;;;2.00;;
73699;SDS011;62005;50.082;8.988;2023-09-07T01:54:54;6.07;;;2.00;;
73699;SDS011;62005;50.082;8.988;2023-09-07T01:59:45;3.70;;;1.65;;
73699;SDS011;62005;50.082;8.988;2023-09-07T02:02:10;3.60;;;1.73;;
73699;SDS011;62005;50.082;8.988;2023-09-07T02:04:35;3.70;;;2.08;;
73699;SDS011;62005;50.082;8.988;2023-09-07T02:07:01;3.40;;;1.93;;
73699;SDS011;62005;50.082;8.988;2023-09-07T02:09:26;4.13;;;1.67;;
73699;SDS011;62005;50.082;8.988;2023-09-07T02:11:54;4.90;;;1.80;;
73699;SDS011;62005;50.082;8.988;2023-09-07T02:14:22;4.45;;;1.85;;
73699;SDS011;62005;50.082;8.988;2023-09-07T02:16:47;4.32;;;1.90;;
73699;SDS011;62005;50.082;8.988;2023-09-07T02:19:12;5.47;;;1.53;;
73699;SDS011;62005;50.082;8.988;2023-09-07T02:21:37;3.20;;;2.30;;
73699;SDS011;62005;50.082;8.988;2023-09-07T02:24:03;3.93;;;1.80;;
73699;SDS011;62005;50.082;8.988;2023-09-07T02:26:28;5.35;;;2.00;;
73699;SDS011;62005;50.082;8.988;2023-09-07T02:28:53;5.07;;;1.57;;
73699;SDS011;62005;50.082;8.988;2023-09-07T02:31:18;7.57;;;2.03;;
73699;SDS011;62005;50.082;8.988;2023-09-07T02:33:44;6.40;;;2.00;;
73699;SDS011;62005;50.082;8.988;2023-09-07T02:36:10;3.43;;;1.90;;
73699;SDS011;62005;50.082;8.988;2023-09-07T02:38:35;4.97;;;2.47;;
73699;SDS011;62005;50.082;8.988;2023-09-07T02:41:00;4.93;;;1.80;;
73699;SDS011;62005;50.082;8.988;2023-09-07T02:43:27;4.70;;;2.38;;
73699;SDS011;62005;50.082;8.988;2023-09-07T02:45:53;5.97;;;1.93;;
73699;SDS011;62005;50.082;8.988;2023-09-07T02:48:18;4.95;;;1.65;;
73699;SDS011;62005;50.082;8.988;2023-09-07T02:50:43;4.00;;;2.10;;
73699;SDS011;62005;50.082;8.988;2023-09-07T02:53:13;3.75;;;1.60;;
73699;SDS011;62005;50.082;8.988;2023-09-07T02:55:39;4.90;;;2.10;;
73699;SDS011;62005;50.082;8.988;2023-09-07T02:58:04;4.43;;;1.80;;
73699;SDS011;62005;50.082;8.988;2023-09-07T03:00:29;6.13;;;1.83;;
73699;SDS011;62005;50.082;8.988;2023-09-07T03:02:55;3.30;;;1.80;;
73699;SDS011;62005;50.082;8.988;2023-09-07T03:05:20;3.38;;;1.75;;
73699;SDS011;62005;50.082;8.988;2023-09-07T03:07:46;2.77;;;2.00;;
73699;SDS011;62005;50.082;8.988;2023-09-07T03:10:11;3.33;;;1.75;;
73699;SDS011;62005;50.082;8.988;2023-09-07T03:12:37;3.37;;;1.70;;
73699;SDS011;62005;50.082;8.988;2023-09-07T03:15:02;5.13;;;1.40;;
73699;SDS011;62005;50.082;8.988;2023-09-07T03:17:28;3.95;;;1.65;;
73699;SDS011;62005;50.082;8.988;2023-09-07T03:19:54;4.27;;;1.33;;
73699;SDS011;62005;50.082;8.988;2023-09-07T03:22:19;2.97;;;1.27;;
73699;SDS011;62005;50.082;8.988;2023-09-07T03:24:44;3.80;;;1.75;;
73699;SDS011;62005;50.082;8.988;2023-09-07T03:27:10;3.70;;;1.70;;
73699;SDS011;62005;50.082;8.988;2023-09-07T03:29:36;3.85;;;1.75;;
73699;SDS011;62005;50.082;8.988;2023-09-07T03:32:01;3.13;;;1.50;;
73699;SDS011;62005;50.082;8.988;2023-09-07T03:34:26;3.70;;;1.75;;
73699;SDS011;62005;50.082;8.988;2023-09-07T03:36:52;3.57;;;1.50;;
73699;SDS011;62005;50.082;8.988;2023-09-07T03:39:17;2.73;;;1.50;;
73699;SDS011;62005;50.082;8.988;2023-09-07T03:41:47;3.42;;;1.75;;
73699;SDS011;62005;50.082;8.988;2023-09-07T03:44:12;3.07;;;1.57;;
73699;SDS011;62005;50.082;8.988;2023-09-07T03:46:38;4.70;;;1.80;;
73699;SDS011;62005;50.082;8.988;2023-09-07T03:49:03;3.67;;;1.80;;
73699;SDS011;62005;50.082;8.988;2023-09-07T03:51:28;6.67;;;2.10;;
73699;SDS011;62005;50.082;8.988;2023-09-07T03:53:53;5.17;;;1.70;;
73699;SDS011;62005;50.082;8.988;2023-09-07T03:56:19;4.87;;;1.77;;
73699;SDS011;62005;50.082;8.988;2023-09-07T03:58:44;6.13;;;1.70;;
73699;SDS011;62005;50.082;8.988;2023-09-07T04:01:09;4.23;;;1.87;;
73699;SDS011;62005;50.082;8.988;2023-09-07T04:03:34;3.87;;;1.60;;
73699;SDS011;62005;50.082;8.988;2023-09-07T04:05:59;6.13;;;2.10;;
73699;SDS011;62005;50.082;8.988;2023-09-07T04:08:25;4.07;;;1.70;;
73699;SDS011;62005;50.082;8.988;2023-09-07T04:10:50;3.63;;;1.63;;
73699;SDS011;62005;50.082;8.988;2023-09-07T04:13:15;4.17;;;1.63;;
73699;SDS011;62005;50.082;8.988;2023-09-07T04:15:43;3.47;;;1.37;;
73699;SDS011;62005;50.082;8.988;2023-09-07T04:18:09;6.47;;;2.00;;
73699;SDS011;62005;50.082;8.988;2023-09-07T04:20:37;3.25;;;1.83;;
73699;SDS011;62005;50.082;8.988;2023-09-07T04:23:02;2.93;;;1.50;;
73699;SDS011;62005;50.082;8.988;2023-09-07T04:25:28;3.80;;;1.60;;
73699;SDS011;62005;50.082;8.988;2023-09-07T04:27:53;5.40;;;1.70;;
73699;SDS011;62005;50.082;8.988;2023-09-07T04:30:18;4.37;;;1.87;;
73699;SDS011;62005;50.082;8.988;2023-09-07T04:32:43;3.43;;;1.60;;
73699;SDS011;62005;50.082;8.988;2023-09-07T04:35:09;4.23;;;1.63;;
73699;SDS011;62005;50.082;8.988;2023-09-07T04:37:34;4.13;;;1.60;;
73699;SDS011;62005;50.082;8.988;2023-09-07T04:39:59;4.90;;;1.90;;
73699;SDS011;62005;50.082;8.988;2023-09-07T04:42:24;5.33;;;1.63;;
73699;SDS011;62005;50.082;8.988;2023-09-07T04:44:49;3.23;;;1.60;;
73699;SDS011;62005;50.082;8.988;2023-09-07T04:47:15;4.47;;;1.97;;
73699;SDS011;62005;50.082;8.988;2023-09-07T04:49:48;3.30;;;1.52;;
73699;SDS011;62005;50.082;8.988;2023-09-07T04:52:13;3.50;;;1.50;;
73699;SDS011;62005;50.082;8.988;2023-09-07T04:54:38;3.87;;;1.43;;
73699;SDS011;62005;50.082;8.988;2023-09-07T04:57:03;2.93;;;1.20;;
73699;SDS011;62005;50.082;8.988;2023-09-07T04:59:29;5.17;;;1.80;;
73699;SDS011;62005;50.082;8.988;2023-09-07T05:01:59;3.30;;;1.58;;
73699;SDS011;62005;50.082;8.988;2023-09-07T05:04:27;3.88;;;1.80;;
73699;SDS011;62005;50.082;8.988;2023-09-07T05:06:53;4.70;;;1.40;;
73699;SDS011;62005;50.082;8.988;2023-09-07T05:09:18;5.83;;;2.00;;
73699;SDS011;62005;50.082;8.988;2023-09-07T05:11:45;3.70;;;1.83;;
73699;SDS011;62005;50.082;8.988;2023-09-07T05:14:10;2.87;;;1.50;;
73699;SDS011;62005;50.082;8.988;2023-09-07T05:16:35;4.30;;;1.80;;
73699;SDS011;62005;50.082;8.988;2023-09-07T05:19:00;2.90;;;1.53;;
73699;SDS011;62005;50.082;8.988;2023-09-07T05:21:26;5.67;;;2.20;;
73699;SDS011;62005;50.082;8.988;2023-09-07T05:23:53;3.50;;;1.97;;
73699;SDS011;62005;50.082;8.988;2023-09-07T05:26:22;4.40;;;1.85;;
73699;SDS011;62005;50.082;8.988;2023-09-07T05:28:48;3.42;;;1.48;;
73699;SDS011;62005;50.082;8.988;2023-09-07T05:31:14;3.67;;;1.80;;
73699;SDS011;62005;50.082;8.988;2023-09-07T05:33:39;6.13;;;1.90;;
73699;SDS011;62005;50.082;8.988;2023-09-07T05:36:04;3.33;;;1.27;;
73699;SDS011;62005;50.082;8.988;2023-09-07T05:38:29;4.83;;;1.60;;
73699;SDS011;62005;50.082;8.988;2023-09-07T05:40:55;3.10;;;1.60;;
73699;SDS011;62005;50.082;8.988;2023-09-07T05:43:20;7.33;;;2.40;;
73699;SDS011;62005;50.082;8.988;2023-09-07T05:45:46;3.58;;;1.90;;
73699;SDS011;62005;50.082;8.988;2023-09-07T05:48:11;2.92;;;1.65;;
73699;SDS011;62005;50.082;8.988;2023-09-07T05:50:36;6.27;;;1.80;;
73699;SDS011;62005;50.082;8.988;2023-09-07T05:53:02;4.70;;;1.40;;
73699;SDS011;62005;50.082;8.988;2023-09-07T05:55:27;5.85;;;1.60;;
73699;SDS011;62005;50.082;8.988;2023-09-07T05:57:53;5.63;;;1.70;;
73699;SDS011;62005;50.082;8.988;2023-09-07T06:00:19;3.72;;;1.80;;
73699;SDS011;62005;50.082;8.988;2023-09-07T06:02:45;5.60;;;1.50;;
73699;SDS011;62005;50.082;8.988;2023-09-07T06:05:10;5.90;;;1.85;;
73699;SDS011;62005;50.082;8.988;2023-09-07T06:07:36;3.80;;;1.50;;
73699;SDS011;62005;50.082;8.988;2023-09-07T06:10:01;3.42;;;1.60;;
73699;SDS011;62005;50.082;8.988;2023-09-07T06:12:26;4.57;;;1.73;;
73699;SDS011;62005;50.082;8.988;2023-09-07T06:14:51;3.50;;;1.60;;
73699;SDS011;62005;50.082;8.988;2023-09-07T06:17:17;4.03;;;1.50;;
73699;SDS011;62005;50.082;8.988;2023-09-07T06:19:42;4.13;;;1.60;;
73699;SDS011;62005;50.082;8.988;2023-09-07T06:22:07;3.65;;;1.70;;
73699;SDS011;62005;50.082;8.988;2023-09-07T06:24:33;4.03;;;1.77;;
73699;SDS011;62005;50.082;8.988;2023-09-07T06:26:58;3.43;;;1.30;;
73699;SDS011;62005;50.082;8.988;2023-09-07T06:29:23;4.17;;;1.50;;
73699;SDS011;62005;50.082;8.988;2023-09-07T06:31:48;3.42;;;1.58;;
73699;SDS011;62005;50.082;8.988;2023-09-07T06:34:15;6.07;;;1.95;;
73699;SDS011;62005;50.082;8.988;2023-09-07T06:36:40;4.13;;;1.90;;
73699;SDS011;62005;50.082;8.988;2023-09-07T06:39:05;4.07;;;1.90;;
73699;SDS011;62005;50.082;8.988;2023-09-07T06:41:31;5.05;;;1.50;;
73699;SDS011;62005;50.082;8.988;2023-09-07T06:43:56;5.20;;;1.50;;
73699;SDS011;62005;50.082;8.988;2023-09-07T06:46:21;5.20;;;1.67;;
73699;SDS011;62005;50.082;8.988;2023-09-07T06:48:49;4.68;;;2.10;;
73699;SDS011;62005;50.082;8.988;2023-09-07T06:51:14;5.30;;;1.70;;
73699;SDS011;62005;50.082;8.988;2023-09-07T06:53:39;5.90;;;1.70;;
73699;SDS011;62005;50.082;8.988;2023-09-07T06:56:06;5.50;;;1.45;;
73699;SDS011;62005;50.082;8.988;2023-09-07T06:58:31;4.30;;;1.70;;
73699;SDS011;62005;50.082;8.988;2023-09-07T07:00:59;3.50;;;1.60;;
73699;SDS011;62005;50.082;8.988;2023-09-07T07:03:28;7.27;;;1.43;;
73699;SDS011;62005;50.082;8.988;2023-09-07T07:05:53;4.80;;;1.77;;
73699;SDS011;62005;50.082;8.988;2023-09-07T07:08:19;5.88;;;1.40;;
73699;SDS011;62005;50.082;8.988;2023-09-07T07:10:44;7.33;;;1.57;;
73699;SDS011;62005;50.082;8.988;2023-09-07T07:13:09;3.53;;;1.60;;
73699;SDS011;62005;50.082;8.988;2023-09-07T07:15:34;6.77;;;1.80;;
73699;SDS011;62005;50.082;8.988;2023-09-07T07:18:00;6.63;;;1.70;;
73699;SDS011;62005;50.082;8.988;2023-09-07T07:20:25;7.50;;;1.70;;
73699;SDS011;62005;50.082;8.988;2023-09-07T07:22:51;5.78;;;1.45;;
73699;SDS011;62005;50.082;8.988;2023-09-07T07:25:16;5.37;;;1.70;;
73699;SDS011;62005;50.082;8.988;2023-09-07T07:27:42;4.50;;;1.52;;
73699;SDS011;62005;50.082;8.988;2023-09-07T07:30:07;4.83;;;1.43;;
73699;SDS011;62005;50.082;8.988;2023-09-07T07:32:32;5.25;;;1.83;;
73699;SDS011;62005;50.082;8.988;2023-09-07T07:34:58;3.30;;;1.50;;
73699;SDS011;62005;50.082;8.988;2023-09-07T07:37:23;6.67;;;1.70;;
73699;SDS011;62005;50.082;8.988;2023-09-07T07:39:49;4.30;;;1.10;;
73699;SDS011;62005;50.082;8.988;2023-09-07T07:42:14;3.60;;;1.60;;
73699;SDS011;62005;50.082;8.988;2023-09-07T07:44:39;5.67;;;1.63;;
73699;SDS011;62005;50.082;8.988;2023-09-07T07:47:04;5.07;;;1.43;;
73699;SDS011;62005;50.082;8.988;2023-09-07T07:49:29;3.10;;;1.50;;
73699;SDS011;62005;50.082;8.988;2023-09-07T07:51:56;2.78;;;1.25;;
73699;SDS011;62005;50.082;8.988;2023-09-07T07:54:22;7.25;;;1.42;;
73699;SDS011;62005;50.082;8.988;2023-09-07T07:56:49;4.63;;;1.33;;
73699;SDS011;62005;50.082;8.988;2023-09-07T07:59:15;3.67;;;1.30;;
73699;SDS011;62005;50.082;8.988;2023-09-07T08:01:40;4.80;;;1.40;;
73699;SDS011;62005;50.082;8.988;2023-09-07T08:04:05;3.57;;;1.40;;
73699;SDS011;62005;50.082;8.988;2023-09-07T08:06:30;3.20;;;1.20;;
73699;SDS011;62005;50.082;8.988;2023-09-07T08:08:55;3.40;;;1.10;;
73699;SDS011;62005;50.082;8.988;2023-09-07T08:11:21;4.43;;;1.30;;
73699;SDS011;62005;50.082;8.988;2023-09-07T08:13:46;2.50;;;1.42;;
73699;SDS011;62005;50.082;8.988;2023-09-07T08:16:12;2.85;;;1.08;;
73699;SDS011;62005;50.082;8.988;2023-09-07T08:18:37;3.10;;;1.13;;
73699;SDS011;62005;50.082;8.988;2023-09-07T08:21:02;3.27;;;1.20;;
73699;SDS011;62005;50.082;8.988;2023-09-07T08:23:28;4.83;;;1.00;;
73699;SDS011;62005;50.082;8.988;2023-09-07T08:25:53;2.63;;;0.90;;
73699;SDS011;62005;50.082;8.988;2023-09-07T08:28:19;3.17;;;1.02;;
73699;SDS011;62005;50.082;8.988;2023-09-07T08:30:48;4.65;;;1.08;;
73699;SDS011;62005;50.082;8.988;2023-09-07T08:35:38;2.55;;;0.80;;
73699;SDS011;62005;50.082;8.988;2023-09-07T08:38:09;2.97;;;1.25;;
73699;SDS011;62005;50.082;8.988;2023-09-07T08:40:34;3.95;;;1.10;;
73699;SDS011;62005;50.082;8.988;2023-09-07T08:45:25;2.80;;;0.93;;
73699;SDS011;62005;50.082;8.988;2023-09-07T08:47:54;2.60;;;1.13;;
73699;SDS011;62005;50.082;8.988;2023-09-07T08:50:19;2.75;;;1.00;;
73699;SDS011;62005;50.082;8.988;2023-09-07T08:52:46;5.18;;;1.10;;
73699;SDS011;62005;50.082;8.988;2023-09-07T08:55:12;3.63;;;0.90;;
73699;SDS011;62005;50.082;8.988;2023-09-07T08:57:37;2.65;;;0.95;;
73699;SDS011;62005;50.082;8.988;2023-09-07T09:00:03;3.57;;;1.00;;
73699;SDS011;62005;50.082;8.988;2023-09-07T09:02:33;2.17;;;0.85;;
73699;SDS011;62005;50.082;8.988;2023-09-07T09:04:58;4.10;;;1.17;;
73699;SDS011;62005;50.082;8.988;2023-09-07T09:07:24;5.07;;;1.02;;
73699;SDS011;62005;50.082;8.988;2023-09-07T09:09:49;3.57;;;1.30;;
73699;SDS011;62005;50.082;8.988;2023-09-07T09:12:14;5.68;;;1.20;;
73699;SDS011;62005;50.082;8.988;2023-09-07T09:14:43;3.35;;;0.80;;
73699;SDS011;62005;50.082;8.988;2023-09-07T09:17:12;3.85;;;0.85;;
73699;SDS011;62005;50.082;8.988;2023-09-07T09:19:39;2.20;;;1.08;;
73699;SDS011;62005;50.082;8.988;2023-09-07T09:22:04;3.83;;;0.88;;
73699;SDS011;62005;50.082;8.988;2023-09-07T09:24:32;2.60;;;0.80;;
73699;SDS011;62005;50.082;8.988;2023-09-07T09:26:59;2.88;;;0.88;;
73699;SDS011;62005;50.082;8.988;2023-09-07T09:29:24;5.47;;;1.20;;
73699;SDS011;62005;50.082;8.988;2023-09-07T09:31:51;4.45;;;0.93;;
73699;SDS011;62005;50.082;8.988;2023-09-07T09:36:42;4.80;;;1.90;;
73699;SDS011;62005;50.082;8.988;2023-09-07T09:39:07;2.78;;;0.90;;
73699;SDS011;62005;50.082;8.988;2023-09-07T09:41:34;1.98;;;0.82;;
73699;SDS011;62005;50.082;8.988;2023-09-07T09:44:00;1.75;;;0.75;;
73699;SDS011;62005;50.082;8.988;2023-09-07T09:46:27;2.72;;;0.70;;
73699;SDS011;62005;50.082;8.988;2023-09-07T09:48:54;2.67;;;0.90;;
73699;SDS011;62005;50.082;8.988;2023-09-07T09:51:19;2.53;;;0.90;;
73699;SDS011;62005;50.082;8.988;2023-09-07T09:53:45;3.00;;;1.00;;
73699;SDS011;62005;50.082;8.988;2023-09-07T09:56:10;2.37;;;0.77;;
73699;SDS011;62005;50.082;8.988;2023-09-07T09:58:36;2.93;;;1.10;;
73699;SDS011;62005;50.082;8.988;2023-09-07T10:01:01;2.83;;;0.80;;
73699;SDS011;62005;50.082;8.988;2023-09-07T10:03:37;3.70;;;0.60;;
73699;SDS011;62005;50.082;8.988;2023-09-07T10:08:34;1.73;;;0.60;;
73699;SDS011;62005;50.082;8.988;2023-09-07T10:11:00;2.63;;;0.87;;
73699;SDS011;62005;50.082;8.988;2023-09-07T10:13:29;2.10;;;0.80;;
73699;SDS011;62005;50.082;8.988;2023-09-07T10:16:05;3.35;;;0.77;;
73699;SDS011;62005;50.082;8.988;2023-09-07T10:18:34;2.50;;;0.82;;
73699;SDS011;62005;50.082;8.988;2023-09-07T10:21:00;2.38;;;0.93;;
73699;SDS011;62005;50.082;8.988;2023-09-07T10:23:43;3.28;;;0.98;;
73699;SDS011;62005;50.082;8.988;2023-09-07T10:26:12;2.75;;;0.80;;
73699;SDS011;62005;50.082;8.988;2023-09-07T10:28:38;3.92;;;0.88;;
73699;SDS011;62005;50.082;8.988;2023-09-07T10:31:04;2.97;;;0.90;;
73699;SDS011;62005;50.082;8.988;2023-09-07T10:33:30;4.28;;;1.30;;
73699;SDS011;62005;50.082;8.988;2023-09-07T10:35:55;4.07;;;0.98;;
73699;SDS011;62005;50.082;8.988;2023-09-07T10:38:22;3.42;;;0.70;;
73699;SDS011;62005;50.082;8.988;2023-09-07T10:40:47;4.45;;;0.77;;
73699;SDS011;62005;50.082;8.988;2023-09-07T10:43:12;2.33;;;0.90;;
73699;SDS011;62005;50.082;8.988;2023-09-07T10:45:38;2.77;;;0.90;;
73699;SDS011;62005;50.082;8.988;2023-09-07T10:48:04;2.72;;;0.73;;
73699;SDS011;62005;50.082;8.988;2023-09-07T10:50:29;3.42;;;1.10;;
73699;SDS011;62005;50.082;8.988;2023-09-07T10:52:54;3.08;;;0.95;;
73699;SDS011;62005;50.082;8.988;2023-09-07T10:55:20;2.03;;;0.70;;
73699;SDS011;62005;50.082;8.988;2023-09-07T10:57:45;3.23;;;0.93;;
73699;SDS011;62005;50.082;8.988;2023-09-07T11:00:11;2.40;;;0.77;;
73699;SDS011;62005;50.082;8.988;2023-09-07T11:02:40;3.80;;;1.17;;
73699;SDS011;62005;50.082;8.988;2023-09-07T11:05:05;2.90;;;1.05;;
73699;SDS011;62005;50.082;8.988;2023-09-07T11:07:31;3.63;;;1.05;;
73699;SDS011;62005;50.082;8.988;2023-09-07T11:09:56;5.80;;;1.03;;
73699;SDS011;62005;50.082;8.988;2023-09-07T11:12:21;4.93;;;1.20;;
73699;SDS011;62005;50.082;8.988;2023-09-07T11:14:47;7.00;;;1.13;;
73699;SDS011;62005;50.082;8.988;2023-09-07T11:17:13;3.83;;;0.75;;
73699;SDS011;62005;50.082;8.988;2023-09-07T11:19:38;2.17;;;0.90;;
73699;SDS011;62005;50.082;8.988;2023-09-07T11:22:03;2.33;;;0.97;;
73699;SDS011;62005;50.082;8.988;2023-09-07T11:24:29;3.55;;;0.98;;
73699;SDS011;62005;50.082;8.988;2023-09-07T11:26:54;3.10;;;0.82;;
73699;SDS011;62005;50.082;8.988;2023-09-07T11:29:22;3.47;;;0.93;;
73699;SDS011;62005;50.082;8.988;2023-09-07T11:31:48;2.08;;;0.75;;
73699;SDS011;62005;50.082;8.988;2023-09-07T11:34:13;4.13;;;0.90;;
73699;SDS011;62005;50.082;8.988;2023-09-07T11:36:39;2.33;;;0.75;;
73699;SDS011;62005;50.082;8.988;2023-09-07T11:39:04;2.08;;;0.90;;
73699;SDS011;62005;50.082;8.988;2023-09-07T11:41:43;3.60;;;1.00;;
73699;SDS011;62005;50.082;8.988;2023-09-07T11:44:09;2.83;;;1.35;;
73699;SDS011;62005;50.082;8.988;2023-09-07T11:46:34;3.33;;;1.05;;
73699;SDS011;62005;50.082;8.988;2023-09-07T11:48:59;1.63;;;0.80;;
73699;SDS011;62005;50.082;8.988;2023-09-07T11:51:25;2.03;;;0.93;;
73699;SDS011;62005;50.082;8.988;2023-09-07T11:53:50;3.87;;;1.10;;
73699;SDS011;62005;50.082;8.988;2023-09-07T11:56:15;2.20;;;0.73;;
73699;SDS011;62005;50.082;8.988;2023-09-07T11:58:41;2.55;;;0.88;;
73699;SDS011;62005;50.082;8.988;2023-09-07T12:03:33;3.58;;;0.88;;
73699;SDS011;62005;50.082;8.988;2023-09-07T12:05:59;5.70;;;1.33;;
73699;SDS011;62005;50.082;8.988;2023-09-07T12:08:24;6.67;;;1.10;;
73699;SDS011;62005;50.082;8.988;2023-09-07T12:10:50;2.78;;;0.95;;
73699;SDS011;62005;50.082;8.988;2023-09-07T12:13:15;2.97;;;1.20;;
73699;SDS011;62005;50.082;8.988;2023-09-07T12:15:40;2.40;;;1.13;;
73699;SDS011;62005;50.082;8.988;2023-09-07T12:18:06;1.80;;;0.73;;
73699;SDS011;62005;50.082;8.988;2023-09-07T12:20:32;4.60;;;0.98;;
73699;SDS011;62005;50.082;8.988;2023-09-07T12:22:59;3.30;;;0.88;;
73699;SDS011;62005;50.082;8.988;2023-09-07T12:25:24;2.43;;;0.90;;
73699;SDS011;62005;50.082;8.988;2023-09-07T12:27:50;2.10;;;1.00;;
73699;SDS011;62005;50.082;8.988;2023-09-07T12:30:15;3.33;;;1.00;;
73699;SDS011;62005;50.082;8.988;2023-09-07T12:32:43;3.85;;;0.82;;
73699;SDS011;62005;50.082;8.988;2023-09-07T12:35:08;1.97;;;0.80;;
73699;SDS011;62005;50.082;8.988;2023-09-07T12:37:36;3.07;;;1.17;;
73699;SDS011;62005;50.082;8.988;2023-09-07T12:40:03;3.25;;;1.10;;
73699;SDS011;62005;50.082;8.988;2023-09-07T12:42:31;2.70;;;1.20;;
73699;SDS011;62005;50.082;8.988;2023-09-07T12:44:57;3.28;;;1.00;;
73699;SDS011;62005;50.082;8.988;2023-09-07T12:47:22;1.90;;;0.70;;
73699;SDS011;62005;50.082;8.988;2023-09-07T12:49:47;2.57;;;0.77;;
73699;SDS011;62005;50.082;8.988;2023-09-07T12:52:13;3.08;;;1.13;;
73699;SDS011;62005;50.082;8.988;2023-09-07T12:54:38;2.27;;;1.07;;
73699;SDS011;62005;50.082;8.988;2023-09-07T12:57:03;2.60;;;0.90;;
73699;SDS011;62005;50.082;8.988;2023-09-07T12:59:29;3.10;;;1.10;;
73699;SDS011;62005;50.082;8.988;2023-09-07T13:01:54;1.90;;;0.77;;
73699;SDS011;62005;50.082;8.988;2023-09-07T13:04:21;2.60;;;1.10;;
73699;SDS011;62005;50.082;8.988;2023-09-07T13:06:46;3.53;;;1.00;;
73699;SDS011;62005;50.082;8.988;2023-09-07T13:09:11;3.90;;;1.10;;
73699;SDS011;62005;50.082;8.988;2023-09-07T13:11:36;4.30;;;0.80;;
73699;SDS011;62005;50.082;8.988;2023-09-07T13:14:02;3.87;;;0.80;;
73699;SDS011;62005;50.082;8.988;2023-09-07T13:16:27;2.73;;;0.90;;
73699;SDS011;62005;50.082;8.988;2023-09-07T13:18:52;2.70;;;0.90;;
73699;SDS011;62005;50.082;8.988;2023-09-07T13:21:17;3.20;;;0.80;;
73699;SDS011;62005;50.082;8.988;2023-09-07T13:23:42;3.73;;;0.80;;
73699;SDS011;62005;50.082;8.988;2023-09-07T13:26:08;2.83;;;0.80;;
73699;SDS011;62005;50.082;8.988;2023-09-07T13:28:33;2.57;;;1.03;;
73699;SDS011;62005;50.082;8.988;2023-09-07T13:30:58;2.63;;;0.93;;
73699;SDS011;62005;50.082;8.988;2023-09-07T13:33:23;2.93;;;0.80;;
73699;SDS011;62005;50.082;8.988;2023-09-07T13:35:50;2.15;;;0.80;;
73699;SDS011;62005;50.082;8.988;2023-09-07T13:38:15;2.20;;;0.70;;
73699;SDS011;62005;50.082;8.988;2023-09-07T13:40:40;2.30;;;0.90;;
73699;SDS011;62005;50.082;8.988;2023-09-07T13:43:06;2.47;;;0.90;;
73699;SDS011;62005;50.082;8.988;2023-09-07T13:45:31;6.10;;;1.03;;
73699;SDS011;62005;50.082;8.988;2023-09-07T13:47:56;3.13;;;0.80;;
73699;SDS011;62005;50.082;8.988;2023-09-07T13:50:21;3.17;;;0.90;;
73699;SDS011;62005;50.082;8.988;2023-09-07T13:52:47;2.17;;;1.07;;
73699;SDS011;62005;50.082;8.988;2023-09-07T13:55:12;3.40;;;0.90;;
73699;SDS011;62005;50.082;8.988;2023-09-07T13:57:37;2.70;;;0.87;;
73699;SDS011;62005;50.082;8.988;2023-09-07T14:00:03;2.57;;;0.90;;
73699;SDS011;62005;50.082;8.988;2023-09-07T14:02:30;2.33;;;0.80;;
73699;SDS011;62005;50.082;8.988;2023-09-07T14:04:57;2.35;;;0.80;;
73699;SDS011;62005;50.082;8.988;2023-09-07T14:07:22;2.47;;;0.87;;
73699;SDS011;62005;50.082;8.988;2023-09-07T14:09:50;2.65;;;0.70;;
73699;SDS011;62005;50.082;8.988;2023-09-07T14:12:15;1.63;;;0.57;;
73699;SDS011;62005;50.082;8.988;2023-09-07T14:14:41;3.60;;;1.07;;
73699;SDS011;62005;50.082;8.988;2023-09-07T14:17:06;3.83;;;0.90;;
73699;SDS011;62005;50.082;8.988;2023-09-07T14:19:31;3.00;;;1.10;;
73699;SDS011;62005;50.082;8.988;2023-09-07T14:21:57;2.43;;;0.80;;
73699;SDS011;62005;50.082;8.988;2023-09-07T14:24:22;2.22;;;1.00;;
73699;SDS011;62005;50.082;8.988;2023-09-07T14:26:48;5.30;;;1.07;;
73699;SDS011;62005;50.082;8.988;2023-09-07T14:29:13;2.93;;;1.10;;
73699;SDS011;62005;50.082;8.988;2023-09-07T14:31:38;2.23;;;0.80;;
73699;SDS011;62005;50.082;8.988;2023-09-07T14:34:04;1.88;;;0.80;;
73699;SDS011;62005;50.082;8.988;2023-09-07T14:36:29;2.47;;;0.70;;
73699;SDS011;62005;50.082;8.988;2023-09-07T14:38:54;3.73;;;0.90;;
73699;SDS011;62005;50.082;8.988;2023-09-07T14:41:19;2.20;;;0.83;;
73699;SDS011;62005;50.082;8.988;2023-09-07T14:43:46;2.25;;;0.80;;
73699;SDS011;62005;50.082;8.988;2023-09-07T14:46:12;3.83;;;0.82;;
73699;SDS011;62005;50.082;8.988;2023-09-07T14:48:37;3.40;;;1.00;;
73699;SDS011;62005;50.082;8.988;2023-09-07T14:51:02;2.20;;;0.70;;
73699;SDS011;62005;50.082;8.988;2023-09-07T14:53:27;2.73;;;0.73;;